Kesan

LTFL · 埃迪尔内省, 土耳其

使用的METAR站距离机场55 km。
罗盘
风向 的 风向 250° Kesan 1/19
风: 5 kt, 2 beaufort

3 kt

4 kt
改变
0 ft 1.000 2.000 3.000 4.000 5.000
CAVOK
METAR LGAL 231650Z 25005KT CAVOK 14/11 Q1016

METAR Kesan - LTFL

Kesan是,土耳其中的小机场。 该机场位于纬度40,78778和经度26,60700。 该机场有一条跑道: 1/19. 本场的ICAO机场代码为LTFL。 机场在Athinai FIR中。

该航空气象观测是针对Dimokritos Airport在2024年2月23日 18:50, 当地时间进行的。

机场观察

风向为250°,速度为5 kt。

天气为CAVOK。这意味着在5.000 ft或MSA(最低安全高度)以下(以较高者为准)以下没有云。这也意味着没有观测到积雨云或高耸的积云,可见度为10 km 或者更多或更高。此外,不会有雾,降雨或其他重要天气。

温度和风寒是14 °C。 露点为11 °C,相对湿度为82%。 海平面上的气压为1016 hPa (QNH)。

白天

今天,太阳从07:57升起,在18:56降落。 这适用于Kesan,世界夏令时可能有所不同。 当地时间与世界标准时间之间的时差为+3 小时。 当前,没有夏令时有效。

公司介绍

我们没有关于这个机场的公司信息。

体会

到Vliegles.nl去找飞行课程,跳伞和其他飞行体验。 浏览页面,了解Kesan附近所有可用的活动。 你也可以使用搜索功能来寻找你所在地附近的特定飞行课程、跳伞或其他飞行体验。

跑道

Id 标题 侧风 逆风 侧风 %
1/19 019°-199° 4 kt 3 kt 78 %

逆风成分最大的方向会被突出显示,并用于横风计算。 这并不一定意味着这个方向在使用。

温度 & 天气

温度 14 °C
露点 11 °C
相对湿度 82%
Kp-index 0 (0-9)

白天

日出
07:59 (11:29)
中午
13:29
日落
18:59

小工具

你想在你的网站上有一个关于Kesan的当前航空天气(METAR)的小部件吗?

显示HTML代码
?>